Time;durP1;ratioP1;P1;durP2;ratioP2;P2;SDS_P1;SDS_P2;PMS_P1;PMS_P2;Temp;Humidity;BMP_temperature;BMP_pressure;BME280_temperature;BME280_humidity;BME280_pressure;Samples;Min_cycle;Max_cycle;Signal;HPM_P1;HPM_P2
2023/05/18 00:01:16;;;;;;;8.40;2.45;;;;;;;7.44;79.14;102617.09;4850781;29;20116;-81
2023/05/18 00:03:41;;;;;;;8.47;1.77;;;;;;;7.39;79.37;102620.28;4898692;29;20037;-81
2023/05/18 00:06:08;;;;;;;8.17;1.97;;;;;;;7.35;79.71;102617.03;4898387;29;20052;-81
2023/05/18 00:08:35;;;;;;;8.00;1.80;;;;;;;7.31;79.72;102612.94;4881247;29;20461;-81
2023/05/18 00:11:03;;;;;;;12.43;2.28;;;;;;;7.30;80.54;102613.06;4881666;29;20055;-81
2023/05/18 00:13:29;;;;;;;7.72;1.85;;;;;;;7.26;80.37;102614.38;4866204;29;20064;-81
2023/05/18 00:15:55;;;;;;;7.55;2.00;;;;;;;7.22;80.81;102619.22;4881486;29;20039;-81
2023/05/18 00:18:22;;;;;;;9.07;2.08;;;;;;;7.18;80.29;102617.81;4850944;29;20125;-81
2023/05/18 00:21:00;;;;;;;9.07;2.00;;;;;;;7.14;81.08;102622.66;4898559;29;20053;-81
2023/05/18 00:23:30;;;;;;;9.00;2.00;;;;;;;7.11;81.33;102617.56;4883706;29;20044;-81
2023/05/18 00:26:00;;;;;;;8.38;2.10;;;;;;;7.07;81.07;102618.00;4898448;29;20032;-81
2023/05/18 00:28:25;;;;;;;7.57;1.77;;;;;;;7.02;81.10;102618.47;4866297;29;20042;-81
2023/05/18 00:30:52;;;;;;;8.20;1.80;;;;;;;7.00;81.60;102612.38;4881426;29;20123;-81
2023/05/18 00:33:17;;;;;;;9.43;1.90;;;;;;;6.95;81.81;102615.53;4881574;29;20048;-81
2023/05/18 00:35:42;;;;;;;9.30;1.83;;;;;;;6.92;81.75;102620.34;4881681;29;20072;-81
2023/05/18 00:38:08;;;;;;;9.80;1.90;;;;;;;6.89;82.08;102618.78;4881691;29;20043;-81
2023/05/18 00:40:33;;;;;;;11.52;1.98;;;;;;;6.84;82.25;102619.22;4881592;29;20064;-81
2023/05/18 00:42:59;;;;;;;7.95;2.00;;;;;;;6.82;82.72;102623.94;4881687;29;20033;-81
2023/05/18 00:45:25;;;;;;;9.13;2.25;;;;;;;6.78;82.87;102630.63;4851172;29;20041;-81
2023/05/18 00:47:51;;;;;;;8.57;1.87;;;;;;;6.73;82.94;102627.53;4866054;29;20541;-81
2023/05/18 00:50:17;;;;;;;16.25;2.33;;;;;;;6.71;84.20;102629.50;4882016;29;20041;-80
2023/05/18 00:52:42;;;;;;;6.97;2.00;;;;;;;6.70;84.18;102635.88;4898768;29;20115;-81
2023/05/18 00:55:11;;;;;;;11.13;2.00;;;;;;;6.68;84.05;102627.09;4898265;29;20160;-81
2023/05/18 00:57:40;;;;;;;7.85;2.45;;;;;;;6.67;84.15;102633.47;4898110;29;20033;-81
2023/05/18 01:00:09;;;;;;;9.82;1.92;;;;;;;6.66;84.30;102634.50;4882446;29;20078;-81
2023/05/18 01:02:35;;;;;;;9.10;1.90;;;;;;;6.60;84.03;102630.53;4901680;29;20033;-80
2023/05/18 01:05:02;;;;;;;11.43;2.00;;;;;;;6.59;84.87;102627.97;4885029;29;20039;-81
2023/05/18 01:07:27;;;;;;;7.93;2.10;;;;;;;6.59;84.83;102631.50;4884562;29;20148;-81
2023/05/18 01:09:53;;;;;;;7.13;2.47;;;;;;;6.55;85.39;102634.66;4884490;29;20556;-81
2023/05/18 01:12:36;;;;;;;7.10;1.90;;;;;;;6.52;84.61;102629.56;4853789;29;20430;-81
2023/05/18 01:15:09;;;;;;;7.70;2.08;;;;;;;6.50;84.97;102633.22;4884648;29;20115;-81
2023/05/18 01:17:48;;;;;;;8.43;2.38;;;;;;;6.48;85.38;102628.97;4884254;29;20096;-81
2023/05/18 01:20:17;;;;;;;10.37;1.93;;;;;;;6.43;85.75;102633.97;4901648;29;20116;-81
2023/05/18 01:22:45;;;;;;;9.25;2.25;;;;;;;6.39;86.11;102633.41;4884467;29;20031;-81
2023/05/18 01:25:30;;;;;;;6.53;2.08;;;;;;;6.36;86.56;102640.91;4885011;29;20537;-81
2023/05/18 01:28:04;;;;;;;7.20;2.35;;;;;;;6.32;86.82;102637.69;4900934;29;20024;-81
2023/05/18 01:30:34;;;;;;;7.30;2.33;;;;;;;6.29;86.45;102636.09;4885180;29;20044;-81
2023/05/18 01:33:00;;;;;;;6.50;1.80;;;;;;;6.27;86.50;102634.53;4901449;29;20028;-81
2023/05/18 01:35:26;;;;;;;5.88;2.00;;;;;;;6.24;86.91;102634.84;4901165;29;20496;-81
2023/05/18 01:37:51;;;;;;;7.57;2.08;;;;;;;6.20;87.41;102638.81;4884304;29;20116;-81
2023/05/18 01:40:17;;;;;;;7.30;2.23;;;;;;;6.18;87.33;102638.09;4869478;29;20033;-81
2023/05/18 01:42:49;;;;;;;10.43;2.23;;;;;;;6.15;87.77;102634.69;4868836;29;20552;-81
2023/05/18 01:45:27;;;;;;;9.00;2.10;;;;;;;6.15;87.84;102631.16;4900919;29;20041;-81
2023/05/18 01:47:58;;;;;;;7.88;2.05;;;;;;;6.15;87.79;102631.97;4884415;29;20123;-81
2023/05/18 01:50:46;;;;;;;8.32;2.20;;;;;;;6.15;87.27;102642.75;4901470;29;20037;-81
2023/05/18 01:53:26;;;;;;;9.70;2.10;;;;;;;6.18;87.67;102633.56;4883814;29;20055;-81
2023/05/18 01:55:53;;;;;;;9.18;2.10;;;;;;;6.18;87.70;102641.63;4900602;29;20128;-81
2023/05/18 01:58:21;;;;;;;5.70;2.10;;;;;;;6.17;87.91;102637.25;4900839;29;20132;-81
2023/05/18 02:00:47;;;;;;;6.05;1.90;;;;;;;6.15;87.44;102640.06;4900725;29;20056;-81
2023/05/18 02:03:13;;;;;;;8.23;2.28;;;;;;;6.17;88.19;102636.38;4900388;29;20161;-81
2023/05/18 02:05:39;;;;;;;6.57;2.37;;;;;;;6.17;87.81;102636.38;4883858;29;20085;-81
2023/05/18 02:08:05;;;;;;;8.00;2.33;;;;;;;6.14;88.08;102633.00;4868098;29;20104;-81
2023/05/18 02:10:30;;;;;;;7.32;2.30;;;;;;;6.13;88.09;102633.97;4883778;29;20469;-81
2023/05/18 02:12:56;;;;;;;7.60;2.17;;;;;;;6.09;87.69;102635.25;4868990;29;20100;-81
2023/05/18 02:15:21;;;;;;;8.60;2.37;;;;;;;6.08;88.04;102633.56;4868252;29;20036;-81
2023/05/18 02:17:47;;;;;;;7.60;2.10;;;;;;;6.09;88.12;102627.16;4883567;29;20362;-82
2023/05/18 02:20:17;;;;;;;15.07;2.47;;;;;;;6.08;87.93;102630.00;4900730;29;20220;-81
2023/05/18 02:22:43;;;;;;;8.60;2.83;;;;;;;6.08;88.21;102633.56;4883479;29;20481;-81
2023/05/18 02:25:09;;;;;;;8.73;2.83;;;;;;;6.06;88.48;102622.06;4900326;29;20115;-81
2023/05/18 02:27:35;;;;;;;7.67;2.03;;;;;;;6.05;88.45;102624.91;4867610;29;20128;-81
2023/05/18 02:30:03;;;;;;;9.30;2.63;;;;;;;6.03;88.34;102619.66;4900072;29;20033;-81
2023/05/18 02:32:31;;;;;;;8.43;2.33;;;;;;;6.03;88.65;102614.28;4883490;29;20032;-81
2023/05/18 02:34:56;;;;;;;11.13;2.00;;;;;;;6.02;88.94;102619.81;4900047;29;20064;-81
2023/05/18 02:37:22;;;;;;;5.43;1.85;;;;;;;6.02;89.07;102622.50;4900297;29;20449;-81
2023/05/18 02:39:48;;;;;;;12.17;2.93;;;;;;;6.00;88.64;102613.72;4852442;29;20028;-81
2023/05/18 02:42:13;;;;;;;10.80;2.55;;;;;;;5.97;88.92;102615.69;4853391;29;20072;-81
2023/05/18 02:44:40;;;;;;;8.33;2.10;;;;;;;5.96;89.03;102613.97;4899889;29;20047;-81
2023/05/18 02:47:06;;;;;;;5.68;2.00;;;;;;;5.96;89.43;102608.59;4867714;29;20037;-81
2023/05/18 02:49:32;;;;;;;7.47;1.97;;;;;;;5.93;88.79;102608.84;4867513;29;20068;-81
2023/05/18 02:51:57;;;;;;;9.15;2.03;;;;;;;5.91;89.39;102613.53;4883018;29;20056;-81
2023/05/18 02:54:23;;;;;;;7.10;2.10;;;;;;;5.89;89.90;102617.34;4867100;29;20041;-81
2023/05/18 02:56:48;;;;;;;9.17;2.40;;;;;;;5.87;89.44;102616.66;4883337;29;20039;-81
2023/05/18 02:59:14;;;;;;;6.63;2.20;;;;;;;5.86;89.63;102607.72;4867297;29;20040;-81
2023/05/18 03:01:39;;;;;;;8.63;2.63;;;;;;;5.83;89.64;102613.41;4882685;29;20473;-81
2023/05/18 03:04:05;;;;;;;10.60;2.40;;;;;;;5.82;89.86;102608.13;4899572;29;20029;-81
2023/05/18 03:06:31;;;;;;;5.72;2.60;;;;;;;5.79;90.28;102612.81;4899764;29;20048;-81
2023/05/18 03:08:57;;;;;;;12.70;2.67;;;;;;;5.78;89.99;102619.19;4866773;29;20140;-80
2023/05/18 03:11:23;;;;;;;11.90;3.03;;;;;;;5.77;90.67;102620.19;4899375;29;20033;-81
2023/05/18 03:13:49;;;;;;;8.45;2.33;;;;;;;5.75;90.82;102621.31;4882657;29;20036;-81
2023/05/18 03:16:14;;;;;;;9.27;2.43;;;;;;;5.73;90.60;102616.06;4851886;29;20047;-81
2023/05/18 03:18:40;;;;;;;10.20;2.33;;;;;;;5.71;91.18;102618.03;4882884;29;20036;-81
2023/05/18 03:21:06;;;;;;;11.73;3.72;;;;;;;5.69;90.54;102614.66;4882425;29;20481;-81
2023/05/18 03:23:33;;;;;;;7.15;2.30;;;;;;;5.66;90.69;102623.00;4866644;29;20476;-81
2023/05/18 03:26:02;;;;;;;7.47;2.75;;;;;;;5.66;91.25;102619.47;4898893;29;20092;-81
2023/05/18 03:28:28;;;;;;;6.63;2.47;;;;;;;5.62;91.79;102618.88;4898750;29;20478;-81
2023/05/18 03:30:54;;;;;;;6.87;2.30;;;;;;;5.56;91.71;102625.66;4882182;29;20040;-81
2023/05/18 03:33:20;;;;;;;9.68;2.22;;;;;;;5.51;91.67;102619.84;4867060;29;20041;-81
2023/05/18 03:35:45;;;;;;;9.40;2.30;;;;;;;5.51;92.33;102619.84;4866732;29;20067;-81
2023/05/18 03:38:11;;;;;;;9.52;2.35;;;;;;;5.48;92.23;102622.84;4882170;29;20470;-81
2023/05/18 03:40:36;;;;;;;8.03;2.50;;;;;;;5.45;92.02;102623.94;4882703;29;20036;-81
2023/05/18 03:43:01;;;;;;;5.60;2.43;;;;;;;5.42;92.67;102615.31;4882006;29;20044;-81
2023/05/18 03:45:27;;;;;;;7.63;2.63;;;;;;;5.41;92.86;102622.53;4898606;29;20478;-81
2023/05/18 03:47:52;;;;;;;7.75;2.72;;;;;;;5.36;92.95;102616.72;4866665;29;20104;-81
2023/05/18 03:50:18;;;;;;;7.90;2.37;;;;;;;5.36;92.80;102621.22;4882269;29;20088;-81
2023/05/18 03:52:43;;;;;;;12.27;2.83;;;;;;;5.35;93.16;102624.94;4881727;29;20508;-81
2023/05/18 03:55:10;;;;;;;9.10;2.47;;;;;;;5.37;93.24;102625.63;4882046;29;20127;-81
2023/05/18 03:57:35;;;;;;;11.98;2.63;;;;;;;5.37;93.56;102623.78;4882136;29;20107;-81
2023/05/18 04:00:11;;;;;;;8.07;2.20;;;;;;;5.38;92.97;102621.97;4881731;29;20041;-82
2023/05/18 04:02:37;;;;;;;9.43;2.60;;;;;;;5.40;93.41;102626.22;4868610;29;20036;-81
2023/05/18 04:05:02;;;;;;;9.25;2.50;;;;;;;5.40;93.56;102628.91;4898449;29;20080;-81
2023/05/18 04:07:28;;;;;;;6.65;2.42;;;;;;;5.43;93.20;102631.34;4881744;29;20470;-81
2023/05/18 04:09:55;;;;;;;8.83;2.87;;;;;;;5.41;93.27;102630.59;4881852;29;20036;-81
2023/05/18 04:12:20;;;;;;;9.63;2.42;;;;;;;5.41;93.23;102638.66;4881594;29;20474;-81
2023/05/18 04:14:48;;;;;;;9.80;2.73;;;;;;;5.45;93.14;102636.56;4866359;29;20043;-81
2023/05/18 04:17:20;;;;;;;10.43;2.55;;;;;;;5.47;93.81;102634.59;4899060;29;20474;-81
2023/05/18 04:19:47;;;;;;;9.13;2.33;;;;;;;5.53;93.08;102643.97;4898565;29;20089;-81
2023/05/18 04:22:12;;;;;;;6.83;2.53;;;;;;;5.58;92.88;102647.94;4866261;29;20145;-80
2023/05/18 04:24:40;;;;;;;10.10;2.63;;;;;;;5.59;92.71;102644.22;4866057;29;20115;-81
2023/05/18 04:27:05;;;;;;;11.17;2.70;;;;;;;5.63;92.51;102642.13;4866975;29;20044;-81
2023/05/18 04:29:31;;;;;;;10.02;2.50;;;;;;;5.68;92.83;102649.78;4898103;29;20033;-81
2023/05/18 04:31:59;;;;;;;12.00;2.80;;;;;;;5.72;92.61;102643.16;4881730;29;20035;-81
2023/05/18 04:34:30;;;;;;;6.97;2.55;;;;;;;5.78;91.81;102650.66;4851800;29;20039;-81
2023/05/18 04:36:59;;;;;;;10.68;2.42;;;;;;;5.82;91.75;102653.91;4885661;29;20465;-81
2023/05/18 04:39:25;;;;;;;7.78;2.92;;;;;;;5.85;91.88;102659.91;4902706;29;20048;-81
2023/05/18 04:41:57;;;;;;;11.50;2.90;;;;;;;5.87;91.50;102644.44;4885881;29;20119;-81
2023/05/18 04:44:32;;;;;;;9.48;2.35;;;;;;;5.93;91.13;102653.78;4870803;29;20474;-81
2023/05/18 04:46:58;;;;;;;5.68;2.78;;;;;;;5.97;90.87;102658.78;4902104;29;20107;-81
2023/05/18 04:49:24;;;;;;;8.57;2.70;;;;;;;6.05;90.78;102651.84;4901701;29;20481;-81
2023/05/18 04:51:54;;;;;;;14.82;3.40;;;;;;;6.08;90.40;102655.13;4869607;29;20039;-81
2023/05/18 04:54:29;;;;;;;7.47;2.50;;;;;;;6.15;90.33;102658.09;4870672;29;20040;-81
2023/05/18 04:56:56;;;;;;;11.13;2.80;;;;;;;6.19;90.29;102656.00;4901901;29;20084;-81
2023/05/18 04:59:25;;;;;;;12.43;2.72;;;;;;;6.25;90.30;102667.03;4885143;29;20040;-81
2023/05/18 05:01:54;;;;;;;11.18;2.90;;;;;;;6.33;89.75;102658.22;4869847;29;20044;-81
2023/05/18 05:04:21;;;;;;;8.88;2.25;;;;;;;6.39;89.25;102668.47;4901707;29;20089;-81
2023/05/18 05:06:46;;;;;;;12.77;2.95;;;;;;;6.46;88.71;102661.47;4884697;29;20090;-81
2023/05/18 05:09:14;;;;;;;7.80;2.60;;;;;;;6.52;89.25;102664.59;4885643;29;20057;-81
2023/05/18 05:11:40;;;;;;;9.15;2.70;;;;;;;6.58;88.76;102659.47;4885224;29;20079;-81
2023/05/18 05:14:06;;;;;;;9.73;3.05;;;;;;;6.65;88.56;102659.75;4901814;29;20529;-81
2023/05/18 05:16:33;;;;;;;11.87;2.70;;;;;;;6.72;88.48;102666.28;4884495;29;20041;-81
2023/05/18 05:18:58;;;;;;;12.10;2.88;;;;;;;6.77;87.60;102657.75;4901457;29;20043;-81
2023/05/18 05:21:24;;;;;;;11.37;3.10;;;;;;;6.84;87.88;102665.09;4869525;29;20064;-81
2023/05/18 05:23:50;;;;;;;7.88;3.00;;;;;;;6.88;86.71;102665.69;4901092;29;20067;-81
2023/05/18 05:26:17;;;;;;;11.97;2.57;;;;;;;6.96;86.66;102659.53;4901316;29;20040;-81
2023/05/18 05:28:42;;;;;;;6.95;2.65;;;;;;;7.01;86.11;102659.94;4869676;29;20043;-81
2023/05/18 05:31:08;;;;;;;10.60;2.70;;;;;;;7.12;86.16;102658.91;4884060;29;20473;-81
2023/05/18 05:33:34;;;;;;;13.63;3.10;;;;;;;7.23;85.60;102660.56;4901203;29;20037;-81
2023/05/18 05:35:59;;;;;;;10.13;2.77;;;;;;;7.35;84.71;102662.06;4868954;29;20040;-81
2023/05/18 05:38:25;;;;;;;8.98;2.92;;;;;;;7.48;85.06;102670.66;4868869;29;20401;-81
2023/05/18 05:40:50;;;;;;;7.03;2.97;;;;;;;7.61;84.70;102658.69;4884125;29;20036;-81
2023/05/18 05:43:16;;;;;;;9.97;3.10;;;;;;;7.71;84.37;102660.31;4868746;29;20047;-81
2023/05/18 05:45:42;;;;;;;6.35;2.80;;;;;;;7.81;83.66;102660.25;4884399;29;20044;-81
2023/05/18 05:48:08;;;;;;;7.37;2.93;;;;;;;7.96;82.76;102665.97;4884783;29;20061;-82
2023/05/18 05:50:36;;;;;;;9.75;3.47;;;;;;;8.02;82.01;102664.53;4884199;29;20175;-82
2023/05/18 05:53:01;;;;;;;8.55;2.80;;;;;;;8.12;80.99;102659.88;4884350;29;20389;-81
2023/05/18 05:55:26;;;;;;;8.97;2.90;;;;;;;8.21;80.81;102663.53;4884081;29;20036;-81
2023/05/18 05:57:52;;;;;;;10.47;3.20;;;;;;;8.29;80.91;102662.72;4884154;29;20037;-82
2023/05/18 06:00:18;;;;;;;13.17;3.50;;;;;;;8.33;79.44;102658.72;4901297;29;20481;-81
2023/05/18 06:02:43;;;;;;;8.73;3.00;;;;;;;8.41;79.62;102665.06;4853172;29;20528;-81
2023/05/18 06:05:09;;;;;;;9.50;3.17;;;;;;;8.48;79.29;102667.16;4853107;29;20035;-86
2023/05/18 06:07:35;;;;;;;14.07;3.40;;;;;;;8.53;79.36;102662.97;4883452;29;20108;-86
2023/05/18 06:10:07;;;;;;;13.82;3.67;;;;;;;8.58;77.61;102659.78;4868085;29;20434;-85
2023/05/18 06:12:34;;;;;;;8.33;3.23;;;;;;;8.65;77.43;102665.41;4883928;29;20385;-84
2023/05/18 06:15:00;;;;;;;13.20;3.40;;;;;;;8.76;76.80;102657.88;4883544;29;20043;-85
2023/05/18 06:17:26;;;;;;;8.27;3.50;;;;;;;8.85;76.70;102658.78;4868084;29;20028;-85
2023/05/18 06:19:53;;;;;;;10.30;3.70;;;;;;;8.89;76.63;102660.16;4883439;29;20304;-85
2023/05/18 06:22:18;;;;;;;11.05;4.10;;;;;;;8.98;75.41;102660.22;4883051;29;20025;-84
2023/05/18 06:24:44;;;;;;;14.67;4.10;;;;;;;9.00;74.00;102661.75;4883243;29;20042;-82
2023/05/18 06:27:10;;;;;;;15.75;3.30;;;;;;;9.01;74.25;102662.59;4900273;29;20045;-82
2023/05/18 06:29:36;;;;;;;8.43;2.87;;;;;;;8.97;73.86;102663.94;4867898;29;20034;-82
2023/05/18 06:32:01;;;;;;;16.58;3.60;;;;;;;9.04;73.76;102659.56;4867680;29;20055;-82
2023/05/18 06:34:27;;;;;;;10.67;3.50;;;;;;;9.12;73.38;102662.31;4883498;29;20129;-83
2023/05/18 06:36:52;;;;;;;12.35;3.30;;;;;;;9.21;73.09;102668.63;4867714;29;20438;-81
2023/05/18 06:39:17;;;;;;;8.07;3.37;;;;;;;9.29;73.72;102672.22;4883031;29;20045;-81
2023/05/18 06:41:46;;;;;;;10.23;3.27;;;;;;;9.37;73.06;102663.28;4900562;29;20393;-82
2023/05/18 06:44:11;;;;;;;13.25;3.47;;;;;;;9.49;72.51;102674.66;4884039;29;20033;-81
2023/05/18 06:46:37;;;;;;;11.07;3.43;;;;;;;9.59;72.18;102678.09;4883363;29;20385;-82
2023/05/18 06:49:03;;;;;;;12.85;3.60;;;;;;;9.61;70.41;102673.38;4882953;29;20503;-82
2023/05/18 06:51:30;;;;;;;8.98;2.80;;;;;;;9.72;70.71;102666.78;4882849;29;20037;-82
2023/05/18 06:53:55;;;;;;;10.80;3.50;;;;;;;9.81;69.83;102663.06;4882726;29;20059;-82
2023/05/18 06:56:21;;;;;;;9.83;3.40;;;;;;;9.98;70.28;102669.41;4882901;29;20029;-82
2023/05/18 06:58:46;;;;;;;8.30;3.47;;;;;;;10.16;70.29;102673.84;4866593;29;20132;-81
2023/05/18 07:01:12;;;;;;;11.05;3.63;;;;;;;10.28;69.30;102671.63;4882993;29;20040;-82
2023/05/18 07:03:37;;;;;;;7.53;2.73;;;;;;;10.40;68.06;102678.44;4882973;29;20043;-82
2023/05/18 07:06:03;;;;;;;12.47;3.60;;;;;;;10.58;67.63;102677.44;4882810;29;20037;-82
2023/05/18 07:08:29;;;;;;;10.25;3.42;;;;;;;10.69;67.14;102685.22;4882582;29;20088;-82
2023/05/18 07:10:56;;;;;;;11.27;3.10;;;;;;;10.79;66.10;102675.03;4867606;29;20116;-82
2023/05/18 07:13:23;;;;;;;8.07;3.20;;;;;;;10.96;65.58;102688.59;4882183;29;20051;-81
2023/05/18 07:15:48;;;;;;;10.43;3.30;;;;;;;11.04;64.81;102683.97;4898967;29;20103;-82
2023/05/18 07:18:14;;;;;;;12.30;3.50;;;;;;;11.10;64.68;102687.00;4882365;29;20119;-82
2023/05/18 07:20:39;;;;;;;9.30;3.20;;;;;;;11.19;64.43;102689.53;4883098;29;20099;-82
2023/05/18 07:23:05;;;;;;;7.80;2.97;;;;;;;11.24;63.42;102680.84;4866598;29;20448;-82
2023/05/18 07:25:30;;;;;;;10.23;4.05;;;;;;;11.26;63.98;102686.13;4867084;29;20096;-82
2023/05/18 07:27:56;;;;;;;6.67;3.23;;;;;;;11.32;64.03;102691.69;4866846;29;20029;-82
2023/05/18 07:30:27;;;;;;;9.80;3.33;;;;;;;11.37;63.64;102692.03;4866737;29;20136;-82
2023/05/18 07:32:55;;;;;;;15.98;4.18;;;;;;;11.43;62.82;102685.03;4867271;29;20064;-82
2023/05/18 07:35:22;;;;;;;10.95;3.65;;;;;;;11.54;62.93;102689.22;4866413;29;20449;-82
2023/05/18 07:37:50;;;;;;;15.10;3.80;;;;;;;11.54;61.64;102687.34;4898949;29;20064;-82
2023/05/18 07:40:15;;;;;;;7.70;3.03;;;;;;;11.55;61.48;102699.09;4866974;29;20092;-82
2023/05/18 07:42:42;;;;;;;7.80;2.93;;;;;;;11.58;61.74;102696.00;4881914;29;20040;-82
2023/05/18 07:45:08;;;;;;;11.55;3.88;;;;;;;11.63;61.50;102693.59;4866748;29;20104;-82
2023/05/18 07:47:34;;;;;;;8.13;3.58;;;;;;;11.68;61.45;102698.53;4898352;29;20071;-83
2023/05/18 07:50:00;;;;;;;11.43;3.90;;;;;;;11.70;60.75;102702.75;4898839;29;20067;-82
2023/05/18 07:52:25;;;;;;;7.77;3.13;;;;;;;11.77;61.37;102705.59;4898774;29;20035;-82
2023/05/18 07:54:53;;;;;;;11.80;3.75;;;;;;;11.83;61.20;102707.59;4882108;29;20033;-82
2023/05/18 07:57:19;;;;;;;10.47;3.60;;;;;;;11.94;60.42;102711.81;4866621;29;20450;-82
2023/05/18 07:59:45;;;;;;;12.73;3.58;;;;;;;12.06;61.09;102706.81;4882235;29;20041;-82
2023/05/18 08:02:11;;;;;;;9.57;3.70;;;;;;;12.14;60.65;102712.22;4881812;29;20048;-82
2023/05/18 08:04:36;;;;;;;11.52;4.13;;;;;;;12.18;60.48;102709.97;4866647;29;20048;-83
2023/05/18 08:07:03;;;;;;;14.30;3.67;;;;;;;12.22;61.01;102717.63;4866081;29;20139;-82
2023/05/18 08:09:29;;;;;;;12.88;3.40;;;;;;;12.18;59.00;102707.25;4898157;29;20136;-82
2023/05/18 08:11:56;;;;;;;12.52;3.60;;;;;;;12.22;59.54;102709.47;4881679;29;20609;-82
2023/05/18 08:14:21;;;;;;;10.93;3.92;;;;;;;12.25;59.53;102709.09;4898810;29;20055;-82
2023/05/18 08:16:47;;;;;;;9.20;3.47;;;;;;;12.37;59.83;102714.97;4866427;29;20037;-82
2023/05/18 08:19:12;;;;;;;10.33;3.83;;;;;;;12.38;58.18;102710.34;4850702;29;20466;-82
2023/05/18 08:21:37;;;;;;;9.97;3.40;;;;;;;12.39;58.40;102712.06;4866054;29;20437;-82
2023/05/18 08:24:03;;;;;;;13.23;3.37;;;;;;;12.44;57.44;102707.72;4898481;29;20068;-82
2023/05/18 08:26:29;;;;;;;10.20;3.67;;;;;;;12.43;57.91;102703.34;4866856;29;20058;-81
2023/05/18 08:28:54;;;;;;;17.87;4.70;;;;;;;12.50;58.91;102706.16;4850820;29;20036;-82
2023/05/18 08:31:20;;;;;;;11.50;3.20;;;;;;;12.53;58.06;102703.06;4898334;29;20329;-82
2023/05/18 08:33:47;;;;;;;11.98;3.38;;;;;;;12.62;56.94;102699.25;4881724;29;20068;-81
2023/05/18 08:36:12;;;;;;;9.05;3.55;;;;;;;12.76;56.59;102694.88;4851169;29;20060;-81
2023/05/18 08:38:38;;;;;;;13.20;3.50;;;;;;;12.86;55.67;102693.75;4866057;29;20079;-81
2023/05/18 08:41:25;;;;;;;9.70;3.90;;;;;;;12.96;57.08;102687.03;4881205;29;20036;-81
2023/05/18 08:44:03;;;;;;;8.73;2.85;;;;;;;13.22;56.48;102684.88;4898380;29;20091;-81
2023/05/18 08:46:34;;;;;;;7.88;3.33;;;;;;;13.56;56.03;102680.72;4898123;29;20103;-81
2023/05/18 08:49:04;;;;;;;12.10;3.78;;;;;;;13.75;53.31;102682.00;4898709;29;20032;-81
2023/05/18 08:51:33;;;;;;;8.50;2.67;;;;;;;13.92;52.21;102680.75;4898250;29;20465;-81
2023/05/18 08:53:59;;;;;;;13.13;3.10;;;;;;;14.15;52.29;102675.09;4865551;29;20040;-82
2023/05/18 08:56:27;;;;;;;13.23;3.63;;;;;;;14.34;51.72;102683.69;4865589;29;20033;-81
2023/05/18 08:58:57;;;;;;;9.82;3.03;;;;;;;14.43;49.77;102687.13;4881122;29;20028;-81
2023/05/18 09:01:30;;;;;;;10.88;2.88;;;;;;;14.54;49.56;102675.63;4897780;29;20037;-82
2023/05/18 09:03:56;;;;;;;9.07;3.00;;;;;;;14.78;49.69;102676.28;4882045;29;20493;-82
2023/05/18 09:06:23;;;;;;;11.73;3.27;;;;;;;14.91;48.40;102670.91;4881281;29;20437;-82
2023/05/18 09:08:51;;;;;;;10.55;2.80;;;;;;;14.91;47.88;102669.03;4881262;29;20053;-82
2023/05/18 09:11:17;;;;;;;11.68;3.15;;;;;;;14.99;47.65;102661.72;4880931;29;20037;-82
2023/05/18 09:13:43;;;;;;;10.18;3.17;;;;;;;15.15;48.16;102666.03;4880440;29;20085;-81
2023/05/18 09:16:08;;;;;;;12.70;2.90;;;;;;;15.06;46.53;102666.19;4865647;29;20438;-81
2023/05/18 09:18:34;;;;;;;10.67;3.10;;;;;;;15.03;45.48;102669.31;4865727;29;20032;-81
2023/05/18 09:20:59;;;;;;;9.73;3.20;;;;;;;15.40;46.91;102663.63;4882283;29;20041;-80
2023/05/18 09:23:25;;;;;;;11.70;2.95;;;;;;;15.79;46.26;102667.59;4884389;29;20426;-81
2023/05/18 09:25:51;;;;;;;10.03;3.03;;;;;;;15.98;43.72;102663.22;4884586;29;20041;-81
2023/05/18 09:28:27;;;;;;;11.57;2.75;;;;;;;16.20;44.17;102666.63;4884305;29;20060;-81
2023/05/18 09:30:53;;;;;;;7.63;2.47;;;;;;;16.30;43.74;102661.56;4884443;29;20223;-81
2023/05/18 09:33:22;;;;;;;10.80;2.67;;;;;;;16.41;43.14;102662.00;4884488;29;20072;-81
2023/05/18 09:35:50;;;;;;;7.43;2.72;;;;;;;16.32;41.13;102661.34;4901274;29;20039;-81
2023/05/18 09:38:20;;;;;;;6.93;2.50;;;;;;;16.41;42.16;102660.09;4884537;29;20035;-81
2023/05/18 09:40:47;;;;;;;10.13;2.83;;;;;;;16.44;41.50;102665.16;4869725;29;20033;-81
2023/05/18 09:43:13;;;;;;;11.02;3.17;;;;;;;16.50;40.43;102655.25;4868830;29;20477;-81
2023/05/18 09:45:44;;;;;;;8.77;2.60;;;;;;;16.59;40.92;102653.97;4900733;29;20089;-81
2023/05/18 09:48:10;;;;;;;14.00;2.88;;;;;;;16.77;41.54;102650.59;4883776;29;20115;-82
2023/05/18 09:50:39;;;;;;;7.90;2.42;;;;;;;16.94;40.94;102650.16;4868471;29;20119;-81
2023/05/18 09:53:08;;;;;;;11.40;2.70;;;;;;;17.09;40.78;102655.41;4884105;29;20389;-81
2023/05/18 09:55:44;;;;;;;9.95;2.85;;;;;;;17.03;41.36;102648.06;4883761;29;20486;-81
2023/05/18 09:58:10;;;;;;;8.95;2.80;;;;;;;17.06;40.49;102642.97;4900418;29;20056;-81
2023/05/18 10:00:48;;;;;;;11.35;2.78;;;;;;;17.21;40.29;102645.44;4901203;29;20549;-81
2023/05/18 10:03:23;;;;;;;8.13;2.72;;;;;;;17.35;40.59;102646.25;4883924;29;20040;-81
2023/05/18 10:05:49;;;;;;;10.87;2.90;;;;;;;17.38;39.67;102639.47;4883783;29;20028;-81
2023/05/18 10:08:15;;;;;;;12.48;2.85;;;;;;;17.35;38.82;102638.03;4883538;29;20100;-81
2023/05/18 10:10:44;;;;;;;11.65;3.10;;;;;;;17.46;39.65;102629.09;4883737;29;20145;-81
2023/05/18 10:13:16;;;;;;;9.70;2.75;;;;;;;17.64;39.55;102633.00;4868521;29;20037;-81
2023/05/18 10:15:54;;;;;;;9.70;2.83;;;;;;;17.90;40.18;102629.31;4901073;29;20127;-81
2023/05/18 10:18:25;;;;;;;11.40;3.10;;;;;;;17.78;38.33;102642.03;4900494;29;20484;-81
2023/05/18 10:20:53;;;;;;;9.52;2.78;;;;;;;17.94;38.73;102632.44;4883292;29;20035;-81
2023/05/18 10:23:19;;;;;;;12.82;2.90;;;;;;;17.87;38.40;102637.97;4900523;29;20450;-81
2023/05/18 10:25:47;;;;;;;12.30;3.15;;;;;;;17.86;37.94;102631.63;4883520;29;20048;-81
2023/05/18 10:28:36;;;;;;;12.35;3.53;;;;;;;18.13;38.06;102627.88;4900717;29;20064;-81
2023/05/18 10:31:03;;;;;;;8.43;2.80;;;;;;;18.39;38.03;102635.06;4883958;29;20036;-81
2023/05/18 10:33:39;;;;;;;9.63;2.80;;;;;;;18.51;36.57;102624.19;4866464;29;20036;-82
2023/05/18 10:36:06;;;;;;;9.57;3.03;;;;;;;18.57;35.47;102632.38;4883400;29;20461;-81
2023/05/18 10:38:33;;;;;;;9.65;3.05;;;;;;;18.43;35.47;102622.56;4900512;29;20080;-81
2023/05/18 10:40:59;;;;;;;11.35;3.80;;;;;;;18.59;37.95;102624.72;4899580;29;20040;-81
2023/05/18 10:43:26;;;;;;;8.40;3.00;;;;;;;18.52;36.88;102612.13;4882963;29;20040;-81
2023/05/18 10:45:57;;;;;;;10.57;3.10;;;;;;;18.46;37.65;102615.78;4883080;29;20477;-81
2023/05/18 10:48:24;;;;;;;10.70;3.20;;;;;;;18.36;37.65;102625.34;4883178;29;20395;-81
2023/05/18 10:50:51;;;;;;;11.40;3.00;;;;;;;18.69;37.81;102615.97;4899734;29;20051;-81
2023/05/18 10:53:19;;;;;;;9.98;2.78;;;;;;;19.02;36.45;102616.72;4899655;29;20037;-82
2023/05/18 10:55:46;;;;;;;9.73;2.70;;;;;;;19.47;36.32;102613.59;4899828;29;20505;-82
2023/05/18 10:58:15;;;;;;;8.70;3.63;;;;;;;19.84;35.40;102612.69;4882438;29;20033;-83
2023/05/18 11:00:45;;;;;;;7.70;2.90;;;;;;;20.11;34.82;102607.63;4882848;29;20462;-82
2023/05/18 11:03:15;;;;;;;8.82;2.92;;;;;;;20.39;33.62;102614.34;4882895;29;20040;-82
2023/05/18 11:05:41;;;;;;;8.32;3.05;;;;;;;20.62;34.01;102602.47;4899038;29;20033;-82
2023/05/18 11:08:07;;;;;;;11.43;2.90;;;;;;;20.87;33.11;102604.16;4899288;29;20184;-82
2023/05/18 11:10:45;;;;;;;8.52;3.35;;;;;;;21.16;33.85;102596.78;4883427;29;20139;-82
2023/05/18 11:13:13;;;;;;;12.32;3.75;;;;;;;21.42;31.47;102594.53;4882872;29;20025;-82
2023/05/18 11:15:54;;;;;;;10.80;3.38;;;;;;;21.82;31.74;102604.69;4882136;29;20473;-82
2023/05/18 11:18:25;;;;;;;7.63;3.40;;;;;;;22.48;29.90;102601.38;4882713;29;20127;-82
2023/05/18 11:20:50;;;;;;;8.98;3.53;;;;;;;23.24;28.41;102607.16;4898985;29;20036;-82
2023/05/18 11:23:19;;;;;;;12.97;3.57;;;;;;;23.92;27.80;102597.63;4867364;29;20029;-82
2023/05/18 11:25:48;;;;;;;14.32;3.88;;;;;;;24.45;27.83;102589.44;4867355;29;20037;-82
2023/05/18 11:28:14;;;;;;;11.02;4.32;;;;;;;25.34;27.32;102595.19;4866726;29;20135;-81